LiveATC.Net - Listen to live air traffic control over the Internet!


ICAO: KSRB  IATA: SRB   Airport: Upper Cumberland Regional Airport
City: Sparta   State/Province: Tennessee
Country: United States   Continent: North America
KSRB METAR Weather: KSRB 270015Z AUTO 00000KT 10SM CLR 10/07 A2998 RMK A01
KSRB ADS-B Flight Tracking (ADSBExchange)
KSRB Flight Activity (FlightAware)
KSRB Airport Info   (iFlightPlanner)
KSRB VFR Sectional Chart   (iFlightPlanner) 
KSRB IFR Low Altitude Chart   (iFlightPlanner) 
KSRB IFR High Altitude Chart   (iFlightPlanner) 

KSRB CTAF
Feed Status: UP   Listeners: 0
Listen in your browser - HTML5 player (in browser, HTML5)
Click here to listen with your own player (launches your MP3 player)
Archive Access: KSRB CTAF
FacilityFrequency
SParta CTAF122.975

NOTICE

Unauthorized use prohibited. See LiveATC.net Terms of Service


Airport/ARTCC Code
Frequency Search
(e.g., 124.400, 128.75)
Site-wide search
 


Browse Feeds
Top 50 Feeds
HF Oceanic Feeds
Coverage Map
Bad Weather Areas

LiveATC FAQ
Offer LiveATC feed
Contact LiveATC.net
Press Inquiries

LiveATC on iPhone
LiveATC on Android

LiveATC Mobile
(Mobile browser)

ATC Audio Archives
Interesting Recordings

LiveATC Forums


Home Page
About LiveATC.net


Terms of Use
Privacy Policy

AIRMETs/SIGMETs

FAA Airport Status
NAS Status
Arrival Demand


Server Software By:
Icecast.org
Liquidsoap